createdAt,value
2018-07-05T00:02:32.312Z,21.63
2018-07-05T00:05:45.862Z,21.64
2018-07-05T00:08:59.712Z,21.64
2018-07-05T00:12:13.388Z,21.55
2018-07-05T00:15:26.895Z,21.56
2018-07-05T00:18:40.555Z,21.61
2018-07-05T00:21:54.086Z,21.62
2018-07-05T00:25:07.619Z,21.62
2018-07-05T00:28:21.283Z,21.69
2018-07-05T00:31:34.937Z,21.59
2018-07-05T00:34:48.458Z,21.56
2018-07-05T00:38:03.289Z,21.42
2018-07-05T00:41:16.744Z,21.37
2018-07-05T00:44:30.521Z,21.43
2018-07-05T00:47:44.179Z,21.45
2018-07-05T00:50:57.834Z,21.41
2018-07-05T00:54:11.489Z,21.43
2018-07-05T00:57:25.210Z,21.39
2018-07-05T01:00:38.764Z,21.35
2018-07-05T01:03:52.379Z,21.36
2018-07-05T01:07:06.063Z,21.37
2018-07-05T01:10:19.792Z,21.35
2018-07-05T01:13:33.452Z,21.33
2018-07-05T01:16:47.198Z,21.27
2018-07-05T01:20:00.895Z,21.25
2018-07-05T01:23:14.496Z,21.30
2018-07-05T01:26:28.063Z,21.30
2018-07-05T01:29:41.778Z,21.29
2018-07-05T01:32:55.256Z,21.24
2018-07-05T01:36:08.959Z,21.21
2018-07-05T01:39:22.738Z,21.17
2018-07-05T01:42:36.393Z,21.14
2018-07-05T01:45:50.032Z,21.08
2018-07-05T01:49:03.723Z,21.10
2018-07-05T01:52:17.507Z,21.09
2018-07-05T01:55:31.171Z,21.09
2018-07-05T01:58:45.596Z,21.07
2018-07-05T02:01:59.180Z,21.07
2018-07-05T02:05:12.699Z,21.04
2018-07-05T02:08:26.483Z,21.03
2018-07-05T02:11:39.979Z,21.00
2018-07-05T02:14:53.617Z,20.93
2018-07-05T02:18:07.268Z,20.53
2018-07-05T02:21:21.196Z,20.26
2018-07-05T02:24:34.863Z,19.83
2018-07-05T02:27:48.552Z,19.70
2018-07-05T02:31:03.614Z,19.51
2018-07-05T02:34:17.201Z,19.51
2018-07-05T02:37:36.843Z,19.62
2018-07-05T02:40:50.538Z,19.72
2018-07-05T02:44:04.089Z,19.75
2018-07-05T02:47:17.959Z,19.72
2018-07-05T02:50:32.558Z,19.66
2018-07-05T02:53:46.685Z,19.58
2018-07-05T02:57:00.158Z,19.52
2018-07-05T03:00:13.665Z,19.53
2018-07-05T03:03:28.216Z,19.55
2018-07-05T03:06:42.048Z,19.51
2018-07-05T03:09:55.762Z,19.45
2018-07-05T03:13:09.481Z,19.41
2018-07-05T03:16:23.135Z,19.45
2018-07-05T03:19:36.749Z,19.51
2018-07-05T03:22:50.406Z,19.53
2018-07-05T03:26:04.195Z,19.56
2018-07-05T03:29:17.861Z,19.62
2018-07-05T03:32:32.626Z,19.62
2018-07-05T03:35:47.216Z,19.70
2018-07-05T03:39:00.899Z,19.76
2018-07-05T03:42:14.639Z,19.68
2018-07-05T03:45:28.254Z,19.67
2018-07-05T03:48:42.162Z,19.75
2018-07-05T03:51:55.860Z,19.79
2018-07-05T03:55:10.470Z,19.86
2018-07-05T03:58:24.003Z,19.90
2018-07-05T04:01:37.728Z,19.92
2018-07-05T04:04:51.445Z,20.03
2018-07-05T04:08:05.162Z,20.02
2018-07-05T04:11:18.859Z,19.91
2018-07-05T04:14:32.640Z,19.71
2018-07-05T04:17:46.311Z,19.55
2018-07-05T04:20:59.827Z,19.66
2018-07-05T04:24:13.420Z,19.71
2018-07-05T04:27:27.159Z,19.81
2018-07-05T04:30:40.762Z,19.89
2018-07-05T04:33:54.443Z,19.96
2018-07-05T04:37:10.049Z,20.02
2018-07-05T04:40:23.880Z,20.11
2018-07-05T04:43:37.580Z,20.16
2018-07-05T04:46:51.194Z,20.11
2018-07-05T04:50:04.837Z,20.27
2018-07-05T04:53:18.472Z,20.36
2018-07-05T04:56:32.309Z,20.29
2018-07-05T04:59:46.190Z,20.22
2018-07-05T05:02:59.961Z,20.30
2018-07-05T05:06:13.607Z,20.39
2018-07-05T05:09:27.322Z,20.51
2018-07-05T05:12:40.957Z,20.64
2018-07-05T05:15:54.915Z,20.68
2018-07-05T05:19:08.426Z,20.62
2018-07-05T05:22:22.007Z,20.72
2018-07-05T05:25:35.689Z,20.76
2018-07-05T05:28:49.241Z,20.75
2018-07-05T05:32:02.939Z,20.80
2018-07-05T05:35:17.286Z,20.86
2018-07-05T05:38:31.099Z,20.90
2018-07-05T05:41:44.624Z,20.82
2018-07-05T05:44:59.326Z,20.94
2018-07-05T05:48:12.935Z,21.00
2018-07-05T05:51:26.588Z,21.04
2018-07-05T05:54:40.398Z,21.03
2018-07-05T05:57:54.208Z,21.07
2018-07-05T06:01:07.761Z,20.97
2018-07-05T06:04:21.365Z,21.07
2018-07-05T06:07:34.973Z,21.07
2018-07-05T06:10:48.511Z,21.19
2018-07-05T06:14:02.036Z,21.29
2018-07-05T06:17:15.691Z,21.40
2018-07-05T06:20:29.345Z,21.66
2018-07-05T06:23:43.052Z,21.78
2018-07-05T06:26:56.858Z,21.74
2018-07-05T06:30:11.089Z,21.67
2018-07-05T06:33:24.811Z,21.77
2018-07-05T06:36:38.442Z,21.87
2018-07-05T06:39:52.002Z,21.90
2018-07-05T06:43:05.496Z,21.95
2018-07-05T06:46:20.276Z,21.99
2018-07-05T06:49:33.831Z,21.94
2018-07-05T06:52:47.353Z,21.92
2018-07-05T06:56:01.044Z,21.90
2018-07-05T06:59:15.273Z,21.97
2018-07-05T07:02:28.911Z,22.04
2018-07-05T07:05:42.470Z,21.97
2018-07-05T07:08:56.169Z,22.01
2018-07-05T07:12:09.772Z,22.05
2018-07-05T07:15:23.407Z,22.13
2018-07-05T07:18:38.134Z,22.26
2018-07-05T07:21:51.787Z,22.34
2018-07-05T07:25:05.305Z,22.35
2018-07-05T07:28:18.919Z,22.43
2018-07-05T07:31:32.503Z,22.42
2018-07-05T07:34:46.150Z,22.61
2018-07-05T07:37:59.735Z,22.65
2018-07-05T07:41:13.468Z,22.67
2018-07-05T07:44:15.551Z,22.72
2018-07-05T07:47:16.695Z,22.77
2018-07-05T07:50:17.878Z,22.77
2018-07-05T07:53:19.022Z,22.75
2018-07-05T07:56:21.192Z,22.70
2018-07-05T07:59:22.311Z,22.59
2018-07-05T08:02:24.504Z,22.62
2018-07-05T08:05:25.631Z,22.62
2018-07-05T08:08:26.801Z,22.72
2018-07-05T08:11:27.827Z,22.67
2018-07-05T08:14:28.863Z,22.58
2018-07-05T08:17:30.036Z,22.56
2018-07-05T08:20:31.203Z,22.50
2018-07-05T08:23:32.336Z,22.54
2018-07-05T08:26:33.477Z,22.57
2018-07-05T08:29:34.630Z,22.56
2018-07-05T08:32:35.740Z,22.65
2018-07-05T08:35:36.898Z,22.63
2018-07-05T08:38:38.046Z,22.66
2018-07-05T08:41:39.831Z,22.76
2018-07-05T08:44:42.106Z,22.89
2018-07-05T08:47:43.249Z,22.95
2018-07-05T08:50:44.383Z,22.96
2018-07-05T08:53:45.435Z,22.89
2018-07-05T08:56:46.991Z,22.87
2018-07-05T08:59:48.148Z,22.99
2018-07-05T09:02:49.286Z,23.05
2018-07-05T09:05:50.490Z,23.14
2018-07-05T09:08:51.590Z,23.10
2018-07-05T09:11:53.160Z,23.16
2018-07-05T09:14:54.275Z,23.07
2018-07-05T09:17:56.850Z,23.03
2018-07-05T09:20:57.605Z,22.99
2018-07-05T09:23:59.114Z,22.98
2018-07-05T09:27:00.308Z,23.05
2018-07-05T09:30:01.486Z,23.05
2018-07-05T09:33:02.602Z,23.07
2018-07-05T09:36:03.755Z,23.18
2018-07-05T09:39:05.666Z,23.31
2018-07-05T09:42:06.736Z,23.36
2018-07-05T09:45:07.919Z,23.36
2018-07-05T09:48:09.062Z,23.54
2018-07-05T09:51:10.121Z,23.60
2018-07-05T09:54:11.353Z,23.60
2018-07-05T09:57:12.727Z,23.61
2018-07-05T10:00:13.840Z,23.71
2018-07-05T10:03:15.252Z,23.68
2018-07-05T10:06:16.448Z,23.64
2018-07-05T10:09:17.597Z,23.73
2018-07-05T10:12:18.888Z,23.80
2018-07-05T10:15:20.161Z,23.71
2018-07-05T10:18:21.326Z,23.65
2018-07-05T10:21:22.502Z,23.72
2018-07-05T10:24:23.664Z,23.63
2018-07-05T10:27:25.044Z,23.69
2018-07-05T10:30:38.711Z,23.63
2018-07-05T10:33:48.237Z,23.59
2018-07-05T10:36:49.457Z,23.52
2018-07-05T10:40:04.265Z,23.65
2018-07-05T10:43:17.895Z,23.62
2018-07-05T10:46:31.643Z,23.60
2018-07-05T10:49:45.192Z,23.52
2018-07-05T10:52:58.867Z,23.57
2018-07-05T10:56:13.528Z,23.47
2018-07-05T10:59:27.095Z,23.50
2018-07-05T11:02:40.832Z,23.44
2018-07-05T11:05:54.564Z,23.39
2018-07-05T11:09:08.212Z,23.35
2018-07-05T11:12:21.854Z,23.32
2018-07-05T11:15:35.428Z,23.29
2018-07-05T11:18:49.891Z,23.18
2018-07-05T11:22:03.411Z,23.03
2018-07-05T11:25:16.999Z,22.90
2018-07-05T11:28:30.882Z,23.03
2018-07-05T11:31:44.538Z,23.15
2018-07-05T11:34:58.260Z,23.18
2018-07-05T11:38:11.893Z,23.22
2018-07-05T11:41:25.552Z,23.16
2018-07-05T11:44:39.294Z,23.08
2018-07-05T11:47:53.024Z,23.06
2018-07-05T11:51:06.878Z,23.15
2018-07-05T11:54:20.523Z,23.17
2018-07-05T11:57:34.272Z,23.25
2018-07-05T12:00:47.758Z,23.20
2018-07-05T12:04:01.614Z,23.34
2018-07-05T12:07:15.217Z,23.33
2018-07-05T12:10:28.910Z,23.32
2018-07-05T12:13:42.628Z,23.25
2018-07-05T12:16:56.661Z,23.25
2018-07-05T12:20:10.404Z,23.35
2018-07-05T12:23:24.273Z,23.36
2018-07-05T12:26:37.904Z,23.49
2018-07-05T12:29:51.701Z,23.67
2018-07-05T12:33:05.315Z,23.54
2018-07-05T12:36:20.889Z,23.49
2018-07-05T12:39:34.567Z,23.61
2018-07-05T12:42:48.178Z,23.73
2018-07-05T12:46:01.821Z,23.85
2018-07-05T12:49:15.876Z,23.86
2018-07-05T12:52:29.467Z,23.96
2018-07-05T12:55:46.446Z,23.87
2018-07-05T12:59:00.013Z,23.81
2018-07-05T13:02:14.020Z,23.97
2018-07-05T13:05:27.480Z,23.77
2018-07-05T13:08:41.221Z,23.84
2018-07-05T13:11:54.976Z,23.86
2018-07-05T13:15:08.632Z,23.85
2018-07-05T13:18:22.240Z,23.86
2018-07-05T13:21:36.455Z,23.85
2018-07-05T13:24:50.087Z,23.88
2018-07-05T13:28:03.981Z,23.83
2018-07-05T13:31:17.828Z,23.75
2018-07-05T13:34:31.506Z,23.67
2018-07-05T13:37:45.281Z,23.65
2018-07-05T13:40:58.725Z,23.66
2018-07-05T13:44:12.398Z,23.82
2018-07-05T13:47:26.025Z,23.80
2018-07-05T13:50:39.722Z,23.80
2018-07-05T13:53:53.392Z,23.78
2018-07-05T13:57:07.013Z,23.70
2018-07-05T14:00:20.672Z,23.68
2018-07-05T14:03:34.423Z,23.83
2018-07-05T14:06:47.776Z,23.83
2018-07-05T14:10:02.634Z,23.64
2018-07-05T14:13:16.414Z,23.61
2018-07-05T14:16:30.111Z,23.62
2018-07-05T14:19:44.447Z,23.67
2018-07-05T14:22:58.110Z,23.70
2018-07-05T14:26:13.943Z,23.71
2018-07-05T14:29:27.517Z,23.67
2018-07-05T14:32:41.247Z,23.54
2018-07-05T14:35:54.767Z,23.57
2018-07-05T14:39:08.708Z,23.45
2018-07-05T14:42:22.305Z,23.23
2018-07-05T14:45:35.942Z,23.33
2018-07-05T14:48:49.649Z,23.28
2018-07-05T14:52:03.055Z,23.25
2018-07-05T14:55:16.600Z,23.34
2018-07-05T14:58:30.321Z,23.25
2018-07-05T15:01:44.104Z,23.20
2018-07-05T15:04:57.611Z,23.22
2018-07-05T15:08:11.217Z,23.13
2018-07-05T15:11:24.950Z,22.97
2018-07-05T15:14:38.662Z,23.06
2018-07-05T15:17:52.458Z,22.99
2018-07-05T15:21:06.094Z,23.08
2018-07-05T15:24:19.889Z,23.00
2018-07-05T15:27:33.512Z,23.07
2018-07-05T15:30:47.300Z,23.03
2018-07-05T15:34:01.171Z,23.01
2018-07-05T15:37:14.745Z,23.10
2018-07-05T15:40:28.500Z,23.07
2018-07-05T15:43:42.148Z,23.03
2018-07-05T15:46:56.839Z,23.00
2018-07-05T15:50:11.703Z,22.98
2018-07-05T15:53:25.368Z,23.13
2018-07-05T15:56:38.990Z,22.97
2018-07-05T15:59:52.801Z,22.97
2018-07-05T16:03:06.409Z,22.95
2018-07-05T16:06:19.963Z,23.00
2018-07-05T16:09:33.724Z,23.02
2018-07-05T16:12:47.395Z,23.15
2018-07-05T16:16:00.900Z,23.11
2018-07-05T16:19:14.818Z,23.21
2018-07-05T16:22:28.489Z,23.19
2018-07-05T16:25:42.224Z,23.09
2018-07-05T16:28:55.760Z,23.07
2018-07-05T16:32:10.327Z,23.12
2018-07-05T16:35:24.196Z,23.15
2018-07-05T16:38:37.959Z,23.10
2018-07-05T16:41:51.559Z,23.11
2018-07-05T16:45:05.186Z,23.20
2018-07-05T16:48:18.655Z,23.16
2018-07-05T16:51:32.221Z,23.22
2018-07-05T16:54:47.421Z,23.16
2018-07-05T16:58:00.929Z,23.13
2018-07-05T17:01:14.563Z,23.17
2018-07-05T17:04:28.303Z,23.15
2018-07-05T17:07:42.078Z,23.16
2018-07-05T17:10:56.345Z,23.16
2018-07-05T17:14:10.365Z,23.12
2018-07-05T17:17:24.088Z,23.16
2018-07-05T17:20:37.827Z,23.22
2018-07-05T17:23:51.468Z,23.29
2018-07-05T17:27:05.264Z,23.16
2018-07-05T17:30:18.918Z,23.03
2018-07-05T17:33:32.679Z,23.11
2018-07-05T17:36:46.468Z,23.12
2018-07-05T17:40:00.181Z,23.08
2018-07-05T17:43:13.787Z,23.16
2018-07-05T17:46:27.500Z,23.14
2018-07-05T17:49:41.844Z,23.09
2018-07-05T17:52:56.487Z,23.10
2018-07-05T17:56:10.196Z,23.07
2018-07-05T17:59:23.692Z,23.04
2018-07-05T18:02:37.498Z,23.03
2018-07-05T18:05:51.265Z,22.99
2018-07-05T18:09:04.939Z,22.99
2018-07-05T18:12:19.642Z,22.98
2018-07-05T18:15:34.245Z,22.93
2018-07-05T18:18:47.921Z,22.98
2018-07-05T18:22:01.550Z,22.86
2018-07-05T18:25:16.236Z,22.78
2018-07-05T18:28:29.819Z,22.77
2018-07-05T18:31:43.325Z,22.80
2018-07-05T18:34:56.833Z,22.79
2018-07-05T18:38:10.461Z,22.80
2018-07-05T18:41:24.913Z,22.85
2018-07-05T18:44:38.641Z,22.79
2018-07-05T18:47:52.311Z,22.74
2018-07-05T18:51:05.847Z,22.70
2018-07-05T18:54:20.584Z,22.65
2018-07-05T18:57:34.341Z,22.64
2018-07-05T19:00:48.051Z,22.59
2018-07-05T19:04:01.754Z,22.63
2018-07-05T19:07:15.410Z,22.71
2018-07-05T19:10:29.208Z,22.57
2018-07-05T19:13:42.970Z,22.50
2018-07-05T19:16:59.036Z,22.51
2018-07-05T19:20:13.022Z,22.46
2018-07-05T19:23:26.909Z,22.53
2018-07-05T19:26:40.803Z,22.55
2018-07-05T19:29:54.495Z,22.52
2018-07-05T19:33:08.207Z,22.53
2018-07-05T19:36:22.073Z,22.53
2018-07-05T19:39:35.759Z,22.43
2018-07-05T19:42:49.513Z,22.31
2018-07-05T19:46:03.512Z,22.27
2018-07-05T19:49:17.227Z,22.23
2018-07-05T19:52:30.775Z,22.20
2018-07-05T19:55:44.427Z,22.19
2018-07-05T19:58:58.155Z,22.21
2018-07-05T20:02:11.905Z,22.15
2018-07-05T20:05:25.463Z,22.17
2018-07-05T20:08:39.080Z,22.15
2018-07-05T20:11:58.571Z,22.13
2018-07-05T20:15:12.344Z,22.11
2018-07-05T20:18:25.848Z,22.06
2018-07-05T20:21:39.372Z,21.93
2018-07-05T20:24:53.634Z,21.89
2018-07-05T20:28:07.675Z,21.74
2018-07-05T20:31:21.440Z,21.68
2018-07-05T20:34:34.968Z,21.73
2018-07-05T20:37:48.761Z,21.79
2018-07-05T20:41:02.290Z,21.81
2018-07-05T20:44:15.879Z,21.78
2018-07-05T20:47:29.496Z,21.75
2018-07-05T20:50:43.033Z,21.66
2018-07-05T20:53:56.682Z,21.55
2018-07-05T20:57:11.221Z,21.51
2018-07-05T21:00:25.863Z,21.50
2018-07-05T21:03:39.432Z,21.50
2018-07-05T21:06:53.078Z,21.49
2018-07-05T21:10:06.808Z,21.53
2018-07-05T21:13:20.484Z,21.55
2018-07-05T21:16:33.931Z,21.47
2018-07-05T21:19:47.916Z,21.46
2018-07-05T21:23:01.525Z,21.38
2018-07-05T21:26:15.005Z,21.31
2018-07-05T21:29:28.850Z,21.27
2018-07-05T21:32:42.478Z,21.24
2018-07-05T21:35:55.985Z,21.21
2018-07-05T21:39:09.721Z,21.20
2018-07-05T21:42:23.260Z,21.19
2018-07-05T21:45:36.984Z,21.16
2018-07-05T21:48:50.866Z,21.24
2018-07-05T21:52:04.518Z,21.23
2018-07-05T21:55:18.183Z,21.18
2018-07-05T21:58:31.713Z,21.14
2018-07-05T22:01:45.402Z,21.03
2018-07-05T22:04:59.214Z,21.06
2018-07-05T22:08:12.767Z,20.99
2018-07-05T22:11:26.285Z,21.02
2018-07-05T22:14:40.041Z,21.06
2018-07-05T22:17:59.619Z,21.05
2018-07-05T22:21:19.177Z,21.02
2018-07-05T22:24:38.923Z,20.93
2018-07-05T22:27:58.488Z,20.94
2018-07-05T22:31:18.020Z,20.96
2018-07-05T22:34:31.945Z,20.95
2018-07-05T22:37:45.533Z,20.94
2018-07-05T22:40:59.299Z,20.87
2018-07-05T22:44:13.245Z,20.85
2018-07-05T22:47:27.292Z,20.84
2018-07-05T22:50:41.902Z,20.83
2018-07-05T22:53:55.698Z,20.92
2018-07-05T22:57:09.300Z,20.86
2018-07-05T23:00:22.936Z,20.86
2018-07-05T23:03:36.511Z,20.81
2018-07-05T23:06:50.044Z,20.75
2018-07-05T23:10:03.869Z,20.73
2018-07-05T23:13:17.644Z,20.76
2018-07-05T23:16:31.236Z,20.75
2018-07-05T23:19:45.005Z,20.73
2018-07-05T23:22:58.816Z,20.74
2018-07-05T23:26:12.359Z,20.72
2018-07-05T23:29:25.993Z,20.73
2018-07-05T23:32:39.616Z,20.76
2018-07-05T23:35:53.278Z,20.71
2018-07-05T23:39:07.140Z,20.72
2018-07-05T23:42:20.868Z,20.74
2018-07-05T23:45:34.545Z,20.66
2018-07-05T23:48:49.788Z,20.56
2018-07-05T23:52:03.524Z,20.56
2018-07-05T23:55:17.155Z,20.58
2018-07-05T23:58:31.128Z,20.51
